KINL/INL METAR and TAF weather

Enter ICAO airport designator
Station Type Date Time Source
KINL METAR 2019/04/25 09:55 UTC NOAA

KINL 250955Z AUTO 00000KT 10SM CLR M01/M01 A2977 RMK AO2 SLP088 T10061011


Station Type Date Time Source
KINL Decoded METAR 2019/04/25 09:55 UTC NOAA

FALLS INTERNATIONAL AIRPORT , MN, United States (KINL) 48-34N 093-24W 360M
Apr 25, 2019 - 05:55 AM EDT / 2019.04.25 0955 UTC
Wind: Calm:0
Visibility: 10 mile(s):0
Sky conditions: clear
Temperature: 30.9 F (-0.6 C)
Dew Point: 30.0 F (-1.1 C)
Relative Humidity: 96%
Pressure (altimeter): 29.77 in. Hg (1008 hPa)
ob: KINL 250955Z AUTO 00000KT 10SM CLR M01/M01 A2977 RMK AO2 SLP088 T10061011
cycle: 10

Station Type Date Time Source
KINL TAF 2019/04/25 06:22 UTC NOAA

TAF KINL 250520Z 2506/2606 30007KT P6SM SKC
FM251600 28010G17KT P6SM SKC
FM251900 28013G25KT P6SM SCT050
FM260300 30009KT P6SM SKC

Example: see airport list